CYHK

Details ICAO CYHK (YHK)
Name Gjoa Haven
Region Canada
Timezone America/Cambridge_Bay (UTC-7.0)
Plans Departing 7
Arriving 7
Stats Elevation 154 ft / 47 m (AMSL)
Location 68.635447° -95.850245°
Runways 1
Magnetic Variation 7.304° W
Sunrise Unknown / Unknown
Sunset Unknown / Unknown
Advertisement - Login to hide

Runways

ID Width Length Bearing (true) Bearing (mag) Surface Threshold Offset Overrun Length
13T 98 ft / 30 m 4,465 ft / 1,361 m 126.79° 134.09° Gravel 0 ft / 0 m 0 ft / 0 m
31T 98 ft / 30 m 4,465 ft / 1,361 m 306.81° 314.11° Gravel 0 ft / 0 m 0 ft / 0 m

Map

Weather


0- 5 10 15 20 25 30 35+ Temperature / ° C

Clouds and Precipitation
Forecast for 2017-12-13 12:00 UTC. Updated 5 minutes ago

Ground ~20,000 ft ~40,000 ft Winds

METAR

CYHK 131120Z AUTO 31012KT 2 1/2SM -SN BKN040 M23/M26 A2986 RMK SLP121

TAF

TAF AMD TAF AMD CYHK 131007Z 1310/1318 31010KT 2SM -SN HZ BR BKN012 TEMPO 1310/1312 P6SM NSW SCT012 FM131200 30012KT 2SM -SN OVC008 TEMPO 1312/1318 5SM BR OVC020 RMK FCST BASED ON AUTO OBS. NXT FCST BY 131200Z

Frequencies

Recorded 128.69 MHz AWOS
Unicom 122.10 MHz MULTICOM
Warning: Do not use this data for real-world aviation or navigation. No guarantee of current accuracy is given.